Irene Z — WDE9821 — position and weather

sailwx.info

Track history (hours):
 
Tides and Currents Weather Stations Pressure Air Temp Water Temp Dewpoint Dewpoint Depression Visibility Wind Speed Wind Dir Waves Ship Positions

Irene Z

More information available from US FCC via Universal Licensing System and Coast Guard Vessel Documentation Center.

Last reported at 2014-Aug-17 17:09 UTC. Time now 2014-Sep-17 21:34 UTC.
Position N 29°33' W 090°23'.
Warning: this ship's position is 31 days out of date.

Length 24 m; draft 2.5 m.

Type: Towing. MMSI: 367421680.

Date/timePositionNaut miles runAvg speedWind from/ knotsBaromVisibWave heightAir tempDewpointWater temp
2014-Aug-17 17:09N 29°33' W 090°23'0 0.0
2014-Aug-17 16:11N 29°33' W 090°23'0 0.4
2014-Aug-17 15:27N 29°33' W 090°24'3 3.9
2014-Aug-17 14:33N 29°33' W 090°28'4 4.2
2014-Aug-17 13:33N 29°34' W 090°33'4 4.1
2014-Aug-17 12:33N 29°35' W 090°37'5 4.3
2014-Aug-17 11:26N 29°37' W 090°42'14 3.4
2014-Aug-17 07:26N 29°35' W 090°58'4 4.2
2014-Aug-17 06:32N 29°37' W 091°01'4 4.1
2014-Aug-17 05:33N 29°38' W 091°05'3 3.4
2014-Aug-17 04:33N 29°40' W 091°08'3 2.5
2014-Aug-17 03:33N 29°41' W 091°11'3 3.4
2014-Aug-17 02:33N 29°40' W 091°14'1 0.9
2014-Aug-17 01:33N 29°39' W 091°15'1 1.2
2014-Aug-17 00:34N 29°39' W 091°17'4 3.5
2014-Aug-16 23:33N 29°38' W 091°21'4 3.6
2014-Aug-16 22:33N 29°39' W 091°25'5 4.1
2014-Aug-16 21:23N 29°41' W 091°30'3 3.9
2014-Aug-16 20:30N 29°43' W 091°33'4 3.6
2014-Aug-16 19:24N 29°46' W 091°37'173 3.4
2014-Aug-14 16:33N 29°28' W 094°54'3 3.0
2014-Aug-14 15:33N 29°28' W 094°58'0 0.0
2014-Aug-14 14:32N 29°28' W 094°58'0 0.2
2014-Aug-14 13:33N 29°28' W 094°58'0 0.0
2014-Aug-14 12:33N 29°28' W 094°58'0 0.2
2014-Aug-14 11:33N 29°28' W 094°58'0 0.0
2014-Aug-14 10:33N 29°28' W 094°58'0 0.0
2014-Aug-14 09:33N 29°28' W 094°58'0 0.0
2014-Aug-14 08:33N 29°28' W 094°58'0 0.0
2014-Aug-14 07:33N 29°28' W 094°58'0 0.0
2014-Aug-14 06:33N 29°28' W 094°58'0 0.0
2014-Aug-14 05:34N 29°28' W 094°58'0 0.0
2014-Aug-14 04:33N 29°28' W 094°58'0 0.0
2014-Aug-14 03:33N 29°28' W 094°58'0 0.0
2014-Aug-14 02:33N 29°28' W 094°58'0 0.0
2014-Aug-14 01:33N 29°28' W 094°58'0 0.0
2014-Aug-14 00:33N 29°28' W 094°58'0 0.0
2014-Aug-13 23:33N 29°28' W 094°58'0 0.3
2014-Aug-13 22:33N 29°28' W 094°58'0 0.2
2014-Aug-13 21:33N 29°28' W 094°58'0 0.1
2014-Aug-13 20:33N 29°28' W 094°58'0 0.0
2014-Aug-13 19:33N 29°28' W 094°58'0 0.1
2014-Aug-13 18:33N 29°28' W 094°58'0 0.3
2014-Aug-13 17:33N 29°28' W 094°58'0 0.0
2014-Aug-13 16:33N 29°28' W 094°58'0 0.2
2014-Aug-13 15:34N 29°28' W 094°58'0 0.0
2014-Aug-13 14:33N 29°28' W 094°58'0 0.0
2014-Aug-13 13:33N 29°28' W 094°58'0 0.0
2014-Aug-13 01:33N 29°28' W 094°58'3 2.6
2014-Aug-13 00:33N 29°27' W 094°55'5 3.9
2014-Aug-12 23:15N 29°28' W 094°49'4 0.7
2014-Aug-12 18:12N 29°29' W 094°46'0 0.0
2014-Aug-12 14:10N 29°29' W 094°46'0 0.0
2014-Aug-12 13:31N 29°29' W 094°46'0 0.0
2014-Aug-12 12:18N 29°29' W 094°46'6 0.3
2014-Aug-11 12:33N 29°28' W 094°53'4 3.6
2014-Aug-11 11:33N 29°28' W 094°57'1 0.9
2014-Aug-11 10:33N 29°28' W 094°58'0 0.0
2014-Aug-11 09:33N 29°28' W 094°58'0 0.0
2014-Aug-11 08:34N 29°28' W 094°58'0 0.0
2014-Aug-11 05:13N 29°28' W 094°58'0 0.0
2014-Aug-11 04:33N 29°28' W 094°58'0 0.0
2014-Aug-11 03:33N 29°28' W 094°58'0 0.0
2014-Aug-11 02:33N 29°28' W 094°58'0 0.0
2014-Aug-11 01:33N 29°28' W 094°58'0 0.0
2014-Aug-11 00:33N 29°28' W 094°58'0 0.0
2014-Aug-10 23:33N 29°28' W 094°58'0 0.0
2014-Aug-10 22:33N 29°28' W 094°58'0 0.0
2014-Aug-10 21:33N 29°28' W 094°58'0 0.0
2014-Aug-10 20:34N 29°28' W 094°58'0 0.0
2014-Aug-10 19:33N 29°28' W 094°58'0 0.0
2014-Aug-10 18:33N 29°28' W 094°58'0 0.0
2014-Aug-10 17:34N 29°28' W 094°58'0 0.0
2014-Aug-10 16:33N 29°28' W 094°58'0 0.0
2014-Aug-10 15:33N 29°28' W 094°58'0 0.0
2014-Aug-10 14:33N 29°28' W 094°58'0 0.0
2014-Aug-10 13:33N 29°28' W 094°58'0 0.0
2014-Aug-10 12:34N 29°28' W 094°58'0 0.0
2014-Aug-10 11:33N 29°28' W 094°58'0 0.0
2014-Aug-10 10:34N 29°28' W 094°58'0 0.0
2014-Aug-10 09:33N 29°28' W 094°58'0 0.0
2014-Aug-10 08:33N 29°28' W 094°58'0 0.0
2014-Aug-10 07:33N 29°28' W 094°58'0 0.0
2014-Aug-10 06:33N 29°28' W 094°58'0 0.0
2014-Aug-10 05:33N 29°28' W 094°58'0 0.0
2014-Aug-10 04:33N 29°28' W 094°58'0 0.0
2014-Aug-10 03:33N 29°28' W 094°58'0 0.0
2014-Aug-10 02:33N 29°28' W 094°58'0 0.0
2014-Aug-10 01:33N 29°28' W 094°58'0 0.0
2014-Aug-10 00:33N 29°28' W 094°58'1 1.3
2014-Aug-09 23:33N 29°28' W 094°57'3 3.2
2014-Aug-09 22:33N 29°28' W 094°53'  
Track history (hours):
 
Tides and Currents Weather Stations Pressure Air Temp Water Temp Dewpoint Dewpoint Depression Visibility Wind Speed Wind Dir Waves Ship Positions

Irene Z

More information available from US FCC via Universal Licensing System and Coast Guard Vessel Documentation Center.

Last reported at 2014-Aug-17 17:09 UTC. Time now 2014-Sep-17 21:34 UTC.
Position N 29°33' W 090°23'.
Warning: this ship's position is 31 days out of date.

Length 24 m; draft 2.5 m.

Type: Towing. MMSI: 367421680.

Date/timePositionNaut miles runAvg speedWind from/ knotsBaromVisibWave heightAir tempDewpointWater temp
2014-Aug-17 17:09N 29°33' W 090°23'0 0.0
2014-Aug-17 16:11N 29°33' W 090°23'0 0.4
2014-Aug-17 15:27N 29°33' W 090°24'3 3.9
2014-Aug-17 14:33N 29°33' W 090°28'4 4.2
2014-Aug-17 13:33N 29°34' W 090°33'4 4.1
2014-Aug-17 12:33N 29°35' W 090°37'5 4.3
2014-Aug-17 11:26N 29°37' W 090°42'14 3.4
2014-Aug-17 07:26N 29°35' W 090°58'4 4.2
2014-Aug-17 06:32N 29°37' W 091°01'4 4.1
2014-Aug-17 05:33N 29°38' W 091°05'3 3.4
2014-Aug-17 04:33N 29°40' W 091°08'3 2.5
2014-Aug-17 03:33N 29°41' W 091°11'3 3.4
2014-Aug-17 02:33N 29°40' W 091°14'1 0.9
2014-Aug-17 01:33N 29°39' W 091°15'1 1.2
2014-Aug-17 00:34N 29°39' W 091°17'4 3.5
2014-Aug-16 23:33N 29°38' W 091°21'4 3.6
2014-Aug-16 22:33N 29°39' W 091°25'5 4.1
2014-Aug-16 21:23N 29°41' W 091°30'3 3.9
2014-Aug-16 20:30N 29°43' W 091°33'4 3.6
2014-Aug-16 19:24N 29°46' W 091°37'173 3.4
2014-Aug-14 16:33N 29°28' W 094°54'3 3.0
2014-Aug-14 15:33N 29°28' W 094°58'0 0.0
2014-Aug-14 14:32N 29°28' W 094°58'0 0.2
2014-Aug-14 13:33N 29°28' W 094°58'0 0.0
2014-Aug-14 12:33N 29°28' W 094°58'0 0.2
2014-Aug-14 11:33N 29°28' W 094°58'0 0.0
2014-Aug-14 10:33N 29°28' W 094°58'0 0.0
2014-Aug-14 09:33N 29°28' W 094°58'0 0.0
2014-Aug-14 08:33N 29°28' W 094°58'0 0.0
2014-Aug-14 07:33N 29°28' W 094°58'0 0.0
2014-Aug-14 06:33N 29°28' W 094°58'0 0.0
2014-Aug-14 05:34N 29°28' W 094°58'0 0.0
2014-Aug-14 04:33N 29°28' W 094°58'0 0.0
2014-Aug-14 03:33N 29°28' W 094°58'0 0.0
2014-Aug-14 02:33N 29°28' W 094°58'0 0.0
2014-Aug-14 01:33N 29°28' W 094°58'0 0.0
2014-Aug-14 00:33N 29°28' W 094°58'0 0.0
2014-Aug-13 23:33N 29°28' W 094°58'0 0.3
2014-Aug-13 22:33N 29°28' W 094°58'0 0.2
2014-Aug-13 21:33N 29°28' W 094°58'0 0.1
2014-Aug-13 20:33N 29°28' W 094°58'0 0.0
2014-Aug-13 19:33N 29°28' W 094°58'0 0.1
2014-Aug-13 18:33N 29°28' W 094°58'0 0.3
2014-Aug-13 17:33N 29°28' W 094°58'0 0.0
2014-Aug-13 16:33N 29°28' W 094°58'0 0.2
2014-Aug-13 15:34N 29°28' W 094°58'0 0.0
2014-Aug-13 14:33N 29°28' W 094°58'0 0.0
2014-Aug-13 13:33N 29°28' W 094°58'0 0.0
2014-Aug-13 01:33N 29°28' W 094°58'3 2.6
2014-Aug-13 00:33N 29°27' W 094°55'5 3.9
2014-Aug-12 23:15N 29°28' W 094°49'4 0.7
2014-Aug-12 18:12N 29°29' W 094°46'0 0.0
2014-Aug-12 14:10N 29°29' W 094°46'0 0.0
2014-Aug-12 13:31N 29°29' W 094°46'0 0.0
2014-Aug-12 12:18N 29°29' W 094°46'6 0.3
2014-Aug-11 12:33N 29°28' W 094°53'4 3.6
2014-Aug-11 11:33N 29°28' W 094°57'1 0.9
2014-Aug-11 10:33N 29°28' W 094°58'0 0.0
2014-Aug-11 09:33N 29°28' W 094°58'0 0.0
2014-Aug-11 08:34N 29°28' W 094°58'0 0.0
2014-Aug-11 05:13N 29°28' W 094°58'0 0.0
2014-Aug-11 04:33N 29°28' W 094°58'0 0.0
2014-Aug-11 03:33N 29°28' W 094°58'0 0.0
2014-Aug-11 02:33N 29°28' W 094°58'0 0.0
2014-Aug-11 01:33N 29°28' W 094°58'0 0.0
2014-Aug-11 00:33N 29°28' W 094°58'0 0.0
2014-Aug-10 23:33N 29°28' W 094°58'0 0.0
2014-Aug-10 22:33N 29°28' W 094°58'0 0.0
2014-Aug-10 21:33N 29°28' W 094°58'0 0.0
2014-Aug-10 20:34N 29°28' W 094°58'0 0.0
2014-Aug-10 19:33N 29°28' W 094°58'0 0.0
2014-Aug-10 18:33N 29°28' W 094°58'0 0.0
2014-Aug-10 17:34N 29°28' W 094°58'0 0.0
2014-Aug-10 16:33N 29°28' W 094°58'0 0.0
2014-Aug-10 15:33N 29°28' W 094°58'0 0.0
2014-Aug-10 14:33N 29°28' W 094°58'0 0.0
2014-Aug-10 13:33N 29°28' W 094°58'0 0.0
2014-Aug-10 12:34N 29°28' W 094°58'0 0.0
2014-Aug-10 11:33N 29°28' W 094°58'0 0.0
2014-Aug-10 10:34N 29°28' W 094°58'0 0.0
2014-Aug-10 09:33N 29°28' W 094°58'0 0.0
2014-Aug-10 08:33N 29°28' W 094°58'0 0.0
2014-Aug-10 07:33N 29°28' W 094°58'0 0.0
2014-Aug-10 06:33N 29°28' W 094°58'0 0.0
2014-Aug-10 05:33N 29°28' W 094°58'0 0.0
2014-Aug-10 04:33N 29°28' W 094°58'0 0.0
2014-Aug-10 03:33N 29°28' W 094°58'0 0.0
2014-Aug-10 02:33N 29°28' W 094°58'0 0.0
2014-Aug-10 01:33N 29°28' W 094°58'0 0.0
2014-Aug-10 00:33N 29°28' W 094°58'1 1.3
2014-Aug-09 23:33N 29°28' W 094°57'3 3.2
2014-Aug-09 22:33N 29°28' W 094°53'  

Dump ship's entire track history